M I D A S
Marine Information and Data Acquisition System
Tripno 829 of the Zeeleeuw from 2004-10-29 06:24:00 to 2004-10-29 15:40:00
Back to CruiseResearch ActivitiesStationsMapUnderway DataData graphs

EquipmentUnitsComment
TimeDGPSUTC
LatitudeDGPSDM.mWGS84
LongitudeDGPSDM.mWGS84
HeadingGyrodeg 
SOGDGPSknotsSpeed over ground
COGDGPSdegCourse over ground
DepthEcho soundermeters200 kHz
Missing or incorrect values are displayed as -999
Navigation data collected by the RV Zeeleeuw from 2004-10-29 06:24:00 to 2004-10-29 15:40:00
                                                                                    Next 1000 lines
Time Latitude Longitude Heading SOG COG Depth
2004-10-29 06:24:07 51°13.597 2°56.11 120.3 0.1 193 7
2004-10-29 06:24:14 51°13.597 2°56.111 119.4 0.1 193 7
2004-10-29 06:24:18 51°13.597 2°56.111 118.8 0.1 194 7
2004-10-29 06:24:24 51°13.597 2°56.111 117.8 0.1 189 7
2004-10-29 06:24:28 51°13.597 2°56.111 117 0.1 191 7
2004-10-29 06:24:34 51°13.596 2°56.111 116.1 0.1 191 7
2004-10-29 06:24:39 51°13.596 2°56.11 115.4 0.1 177 7
2004-10-29 06:24:42 51°13.596 2°56.11 114.6 0.1 177 7
2004-10-29 06:24:48 51°13.596 2°56.11 113.6 0.1 183 7
2004-10-29 06:24:54 51°13.596 2°56.11 112.7 0.1 196 7
2004-10-29 06:24:58 51°13.596 2°56.11 111.7 0.2 280 7
2004-10-29 06:25:04 51°13.596 2°56.108 111.2 0.2 280 6.9
2004-10-29 06:25:07 51°13.597 2°56.107 111 1.2 288 6.9
2004-10-29 06:25:14 51°13.597 2°56.102 111 1.6 286 6.9
2004-10-29 06:25:19 51°13.598 2°56.097 111.1 2.3 289 6.8
2004-10-29 06:25:24 51°13.6 2°56.091 111.6 2.7 289 -999
2004-10-29 06:25:29 51°13.601 2°56.085 111.9 3.2 291 -999
2004-10-29 06:25:34 51°13.603 2°56.077 112.2 3.4 290 -999
2004-10-29 06:25:40 51°13.606 2°56.068 112.7 3.8 292 -999
2004-10-29 06:25:44 51°13.607 2°56.061 113 3.9 291 -999
2004-10-29 06:25:47 51°13.608 2°56.056 113 4.1 291 -999
2004-10-29 06:25:54 51°13.611 2°56.044 113 4.2 290 -999
2004-10-29 06:26:00 51°13.614 2°56.033 113.3 4.2 290 -999
2004-10-29 06:26:03 51°13.615 2°56.028 113.9 4.5 290 -999
2004-10-29 06:26:08 51°13.618 2°56.018 114.9 4.7 292 -999
2004-10-29 06:26:14 51°13.62 2°56.006 116.2 4.8 291 -999
2004-10-29 06:26:19 51°13.623 2°55.996 117.3 5 293 -999
2004-10-29 06:26:24 51°13.626 2°55.986 118.1 5.2 294 -999
2004-10-29 06:26:30 51°13.63 2°55.973 119.4 5.2 295 -999
2004-10-29 06:26:34 51°13.632 2°55.965 120.4 5.3 296 -999
2004-10-29 06:26:39 51°13.636 2°55.954 121 5.4 297 -999
2004-10-29 06:26:44 51°13.639 2°55.944 121.3 5.4 298 -999
2004-10-29 06:26:50 51°13.644 2°55.931 121.4 5.5 298 -999
2004-10-29 06:26:54 51°13.647 2°55.922 121.4 5.5 298 -999
2004-10-29 06:27:00 51°13.652 2°55.91 121.4 5.6 298 -999
2004-10-29 06:27:02 51°13.653 2°55.905 120.9 5.6 298 -999
2004-10-29 06:27:09 51°13.658 2°55.89 120.1 5.5 298 -999
2004-10-29 06:27:14 51°13.662 2°55.88 119 5.4 298 -999
2004-10-29 06:27:18 51°13.665 2°55.872 118 5.2 297 -999
2004-10-29 06:27:22 51°13.667 2°55.863 116.8 5.1 296 -999
2004-10-29 06:27:30 51°13.671 2°55.847 115.4 5.1 296 -999
2004-10-29 06:27:34 51°13.674 2°55.839 113.9 5 295 -999
2004-10-29 06:27:39 51°13.676 2°55.83 112.7 4.8 293 -999
2004-10-29 06:27:42 51°13.678 2°55.824 110.5 4.7 292 -999
2004-10-29 06:27:48 51°13.68 2°55.812 108.6 4.5 290 -999
2004-10-29 06:27:54 51°13.683 2°55.801 106.6 4.5 289 -999
2004-10-29 06:27:59 51°13.684 2°55.792 104.4 4.4 286 -999
2004-10-29 06:28:02 51°13.685 2°55.786 101.9 4.3 285 -999
2004-10-29 06:28:08 51°13.687 2°55.776 99.4 4 282 -999
2004-10-29 06:28:14 51°13.688 2°55.766 97.3 3.9 281 -999
2004-10-29 06:28:19 51°13.689 2°55.76 95.5 2.7 279 -999
2004-10-29 06:28:22 51°13.689 2°55.758 91.7 2.2 279 12.7
2004-10-29 06:28:28 51°13.689 2°55.756 86.2 0.5 302 12.8
2004-10-29 06:28:32 51°13.69 2°55.757 80.4 0.5 358 12.9
2004-10-29 06:28:38 51°13.691 2°55.758 73 0.8 37 13
2004-10-29 06:28:44 51°13.693 2°55.76 65.9 0.8 37 13.1
2004-10-29 06:28:47 51°13.694 2°55.761 59.1 1.2 37 13.1
2004-10-29 06:28:54 51°13.696 2°55.762 54.1 1.2 32 13.6
2004-10-29 06:28:58 51°13.696 2°55.763 48.8 0.9 27 13.5
2004-10-29 06:29:04 51°13.696 2°55.762 44.9 0.4 336 13.4
2004-10-29 06:29:09 51°13.696 2°55.761 40.9 0.4 250 13.5
2004-10-29 06:29:14 51°13.695 2°55.758 37.8 0.9 236 13.5
2004-10-29 06:29:18 51°13.693 2°55.757 35.4 1.4 221 13.4
2004-10-29 06:29:24 51°13.691 2°55.753 33.3 2 219 12.9
2004-10-29 06:29:30 51°13.688 2°55.75 31.4 2 219 -999
2004-10-29 06:29:34 51°13.686 2°55.749 29.6 1.9 214 -999
2004-10-29 06:29:40 51°13.685 2°55.747 27.8 1 221 -999
2004-10-29 06:29:44 51°13.686 2°55.747 25.4 0.2 265 -999
2004-10-29 06:29:50 51°13.688 2°55.747 18.1 1.2 352 -999
2004-10-29 06:29:54 51°13.69 2°55.746 9.9 1.9 355 -999
2004-10-29 06:29:59 51°13.694 2°55.745 0.5 2.8 347 -999
2004-10-29 06:30:04 51°13.699 2°55.743 351.1 3.3 343 -999
2004-10-29 06:30:09 51°13.704 2°55.74 343.3 3.6 338 -999
2004-10-29 06:30:14 51°13.709 2°55.735 338.9 3.9 333 12.6
2004-10-29 06:30:19 51°13.714 2°55.73 335.7 4.2 331 10.9
2004-10-29 06:30:24 51°13.72 2°55.725 332.8 4.7 329 10.1
2004-10-29 06:30:28 51°13.724 2°55.72 332 5 328 10.2
2004-10-29 06:30:34 51°13.732 2°55.712 332 5.3 327 9.7
2004-10-29 06:30:38 51°13.738 2°55.707 332.8 5.9 329 9.4
2004-10-29 06:30:44 51°13.747 2°55.698 333.6 6.2 329 9.1
2004-10-29 06:30:49 51°13.755 2°55.691 333.8 6.5 329 9.1
2004-10-29 06:30:54 51°13.763 2°55.683 335 6.9 331 9
2004-10-29 06:30:58 51°13.77 2°55.677 336.5 7.2 333 9.3
2004-10-29 06:31:04 51°13.781 2°55.669 337.5 7.3 333 9.3
2004-10-29 06:31:08 51°13.789 2°55.663 338 7.6 333 9.3
2004-10-29 06:31:14 51°13.801 2°55.654 339 7.8 335 9.7
2004-10-29 06:31:19 51°13.811 2°55.646 339.6 7.9 335 9.7
2004-10-29 06:31:24 51°13.821 2°55.638 339.6 7.9 335 10
2004-10-29 06:31:29 51°13.831 2°55.63 339.7 8.4 335 9.6
2004-10-29 06:31:33 51°13.84 2°55.624 340.4 8.6 336 9.7
2004-10-29 06:31:36 51°13.847 2°55.619 340.8 8.8 336 9.5
2004-10-29 06:31:42 51°13.86 2°55.609 340.7 9 336 9.5
2004-10-29 06:31:48 51°13.874 2°55.599 340.7 9.1 336 9.9
2004-10-29 06:31:52 51°13.883 2°55.593 340.8 9.2 336 8.7
2004-10-29 06:31:59 51°13.899 2°55.581 340.5 9.3 336 8.7
2004-10-29 06:32:04 51°13.911 2°55.572 340.4 9.3 336 8.7
2004-10-29 06:32:08 51°13.921 2°55.565 341.1 9.4 336 8.5
2004-10-29 06:32:14 51°13.936 2°55.555 341.1 9.5 336 8.8
2004-10-29 06:32:18 51°13.946 2°55.548 340.8 9.6 336 9.3
2004-10-29 06:32:24 51°13.961 2°55.539 341.6 9.6 337 9.6
2004-10-29 06:32:27 51°13.969 2°55.534 341.7 9.7 337 9.9
2004-10-29 06:32:34 51°13.986 2°55.522 341.2 9.8 337 10.2
2004-10-29 06:32:38 51°13.996 2°55.515 341.1 9.9 337 10.4
2004-10-29 06:32:42 51°14.007 2°55.508 341.1 9.9 337 10
2004-10-29 06:32:48 51°14.022 2°55.498 341.6 9.9 337 9.8
2004-10-29 06:32:52 51°14.032 2°55.491 341.6 9.9 337 9.5
2004-10-29 06:32:58 51°14.047 2°55.481 341.6 10.1 337 9.4
2004-10-29 06:33:03 51°14.06 2°55.471 341.3 10.2 336 9.6
2004-10-29 06:33:08 51°14.073 2°55.462 340.6 10.3 336 9.5
2004-10-29 06:33:14 51°14.089 2°55.45 340.4 10.6 335 9.6
2004-10-29 06:33:19 51°14.103 2°55.44 340.4 10.8 336 9.5
2004-10-29 06:33:22 51°14.11 2°55.433 340.4 10.9 335 9.5
2004-10-29 06:33:29 51°14.13 2°55.419 339.9 11 335 9.5
2004-10-29 06:33:33 51°14.141 2°55.411 339.9 11.2 335 10.1
2004-10-29 06:33:39 51°14.158 2°55.397 339.4 11.3 333 10.7
2004-10-29 06:33:44 51°14.172 2°55.385 338 11.4 331 10.4
2004-10-29 06:33:48 51°14.183 2°55.375 336.3 11.4 331 10.2
2004-10-29 06:33:54 51°14.199 2°55.358 334.5 11.5 329 10.2
2004-10-29 06:33:58 51°14.209 2°55.347 332.1 11.5 325 10.3
2004-10-29 06:34:04 51°14.225 2°55.328 330.4 11.6 323 10.2
2004-10-29 06:34:06 51°14.23 2°55.322 328.3 11.6 322 10.2
2004-10-29 06:34:14 51°14.249 2°55.295 326.2 11.6 319 10.2
2004-10-29 06:34:18 51°14.258 2°55.281 323.7 11.6 315 10
2004-10-29 06:34:23 51°14.269 2°55.262 319.7 11.6 313 10.2
2004-10-29 06:34:28 51°14.28 2°55.242 316.9 11.7 311 9.9
2004-10-29 06:34:33 51°14.29 2°55.223 315.7 11.8 311 9.9
2004-10-29 06:34:38 51°14.301 2°55.203 315.3 11.8 310 9.8
2004-10-29 06:34:42 51°14.31 2°55.187 315.6 11.8 311 9.7
2004-10-29 06:34:48 51°14.323 2°55.163 316.2 11.9 312 9.7
2004-10-29 06:34:54 51°14.336 2°55.139 316.1 11.9 311 9.5
2004-10-29 06:34:59 51°14.347 2°55.12 316.3 11.9 311 9.5
2004-10-29 06:35:04 51°14.358 2°55.101 316.9 11.9 313 9.2
2004-10-29 06:35:06 51°14.363 2°55.093 317.7 11.9 315 9.1
2004-10-29 06:35:14 51°14.382 2°55.064 319.5 11.9 316 9.4
2004-10-29 06:35:19 51°14.395 2°55.047 322.4 12 321 10
2004-10-29 06:35:24 51°14.408 2°55.031 326.6 12 321 9.7
2004-10-29 06:35:26 51°14.414 2°55.025 329.2 12.7 323 9.5
2004-10-29 06:35:33 51°14.433 2°55 330 12.8 323 9.5
2004-10-29 06:35:38 51°14.448 2°54.982 329.5 12.9 322 9.4
2004-10-29 06:35:42 51°14.459 2°54.967 328.2 13.2 319 9.3
2004-10-29 06:35:48 51°14.476 2°54.944 327.1 13.3 317 8.8
2004-10-29 06:35:54 51°14.492 2°54.919 326.3 13.3 316 8.9
2004-10-29 06:35:59 51°14.505 2°54.898 324.9 13.4 315 8.8
2004-10-29 06:36:04 51°14.518 2°54.877 324.5 13.4 315 8.7
2004-10-29 06:36:09 51°14.531 2°54.857 324.5 13.4 315 8.6
2004-10-29 06:36:14 51°14.545 2°54.836 325.1 13.4 316 8.7
2004-10-29 06:36:18 51°14.556 2°54.82 325.8 13.5 317 8.6
2004-10-29 06:36:23 51°14.57 2°54.8 326.7 13.6 318 8.6
2004-10-29 06:36:27 51°14.581 2°54.784 327.5 13.6 318 8.5
2004-10-29 06:36:34 51°14.601 2°54.756 328 13.6 318 8.5
2004-10-29 06:36:38 51°14.613 2°54.74 328 13.7 317 8.4
2004-10-29 06:36:44 51°14.629 2°54.715 327.5 13.7 317 8.3
2004-10-29 06:36:48 51°14.64 2°54.699 327.4 13.6 318 8.4
2004-10-29 06:36:54 51°14.657 2°54.675 327.3 13.6 318 8.3
2004-10-29 06:36:58 51°14.668 2°54.659 327.4 13.5 319 8.4
2004-10-29 06:37:04 51°14.686 2°54.637 328.9 13.5 321 8.4
2004-10-29 06:37:08 51°14.698 2°54.622 330.2 13.6 321 8.4
2004-10-29 06:37:14 51°14.716 2°54.601 331.7 13.6 324 8.5
2004-10-29 06:37:18 51°14.728 2°54.587 333.7 13.5 325 8.4
2004-10-29 06:37:23 51°14.744 2°54.571 334.8 13.5 327 8.4
2004-10-29 06:37:29 51°14.763 2°54.552 336.3 13.5 327 8.4
2004-10-29 06:37:34 51°14.78 2°54.538 338.2 13.4 330 8.4
2004-10-29 06:37:38 51°14.793 2°54.527 339.7 13.4 331 8.3
2004-10-29 06:37:44 51°14.812 2°54.51 340.5 13.4 332 8.3
2004-10-29 06:37:47 51°14.822 2°54.502 341.4 13.4 332 8.3
2004-10-29 06:37:54 51°14.845 2°54.483 341.6 13.4 332 8.2
2004-10-29 06:37:58 51°14.858 2°54.471 341.6 13.4 331 8.2
2004-10-29 06:38:04 51°14.877 2°54.454 340.4 13.3 331 8
2004-10-29 06:38:08 51°14.89 2°54.442 339.6 13.3 331 8.1
2004-10-29 06:38:14 51°14.909 2°54.423 338.2 13.3 328 7.9
2004-10-29 06:38:19 51°14.924 2°54.407 337 13.2 327 7.8
2004-10-29 06:38:23 51°14.936 2°54.394 336.2 13.1 327 7.6
2004-10-29 06:38:27 51°14.948 2°54.382 335.6 13 327 7.6
2004-10-29 06:38:36 51°14.975 2°54.353 335.5 12.9 327 7.4
2004-10-29 06:38:39 51°14.984 2°54.345 336.1 12.8 329 7.3
2004-10-29 06:38:46 51°15.006 2°54.325 337.7 12.7 331 7.2
2004-10-29 06:38:51 51°15.022 2°54.313 339.9 12.7 334 7.2
2004-10-29 06:38:55 51°15.034 2°54.304 342.1 12.6 335 5.4
2004-10-29 06:39:04 51°15.064 2°54.284 345.4 12.6 337 5.5
2004-10-29 06:39:10 51°15.083 2°54.272 346.8 12.6 338 5.5
2004-10-29 06:39:14 51°15.096 2°54.263 347.5 12.6 337 5.5
2004-10-29 06:39:19 51°15.112 2°54.251 346.3 12.6 337 7.4
2004-10-29 06:39:25 51°15.131 2°54.236 344.8 12.8 332 5.6
2004-10-29 06:39:30 51°15.146 2°54.221 342.7 12.8 332 7.6
2004-10-29 06:39:34 51°15.158 2°54.207 339.5 13 326 5.6
2004-10-29 06:39:40 51°15.175 2°54.186 335.9 13.1 322 7.6
2004-10-29 06:39:45 51°15.189 2°54.167 331.6 13.1 322 7.7
2004-10-29 06:39:50 51°15.203 2°54.147 328.7 13.2 318 7.7
2004-10-29 06:39:55 51°15.216 2°54.127 327 13.2 317 7.8
2004-10-29 06:39:58 51°15.224 2°54.115 326 13.2 317 7.8
2004-10-29 06:40:05 51°15.243 2°54.087 326.1 13.3 318 7.8
2004-10-29 06:40:10 51°15.257 2°54.069 327.2 13.3 320 8
2004-10-29 06:40:14 51°15.269 2°54.055 329.2 13.4 324 8
2004-10-29 06:40:20 51°15.288 2°54.035 333.1 13.4 326 8.1
2004-10-29 06:40:24 51°15.301 2°54.023 335.8 13.4 329 8.1
2004-10-29 06:40:30 51°15.32 2°54.007 338.6 13.4 330 8.3
2004-10-29 06:40:35 51°15.337 2°53.994 341.2 13.2 333 8.4
2004-10-29 06:40:38 51°15.347 2°53.986 343.1 13.2 334 8.6
2004-10-29 06:40:44 51°15.367 2°53.971 344.1 13.2 335 8.7
2004-10-29 06:40:50 51°15.387 2°53.955 344.2 13.2 335 8.5
2004-10-29 06:40:59 51°15.416 2°53.929 341.9 13.5 330 8.5
2004-10-29 06:41:04 51°15.432 2°53.914 340.4 13.5 330 8.7
2004-10-29 06:41:10 51°15.452 2°53.895 338.9 13.6 328 8.7
2004-10-29 06:41:14 51°15.464 2°53.881 337.6 13.7 326 8.8
2004-10-29 06:41:20 51°15.483 2°53.861 336.5 13.7 326 8.9
2004-10-29 06:41:24 51°15.496 2°53.848 335.9 13.7 326 9
2004-10-29 06:41:30 51°15.515 2°53.828 335.7 13.7 326 9.1
2004-10-29 06:41:35 51°15.531 2°53.811 336.1 13.8 327 9.2
2004-10-29 06:41:38 51°15.541 2°53.802 336.9 13.8 328 9.2
2004-10-29 06:41:44 51°15.56 2°53.782 337.8 13.8 328 9.3
2004-10-29 06:41:50 51°15.58 2°53.763 338.3 13.8 329 9.3
2004-10-29 06:41:54 51°15.593 2°53.751 338.7 13.9 329 9.4
2004-10-29 06:42:00 51°15.613 2°53.732 339.4 13.9 329 9.5
2004-10-29 06:42:03 51°15.623 2°53.722 339.5 13.9 329 9.6
2004-10-29 06:42:10 51°15.646 2°53.7 339.6 13.9 329 9.7
2004-10-29 06:42:14 51°15.659 2°53.687 339.4 13.9 329 9.7
2004-10-29 06:42:19 51°15.676 2°53.672 339.2 13.9 329 9.8
2004-10-29 06:42:24 51°15.692 2°53.655 339.1 13.9 329 9.9
2004-10-29 06:42:30 51°15.712 2°53.636 338.8 13.9 328 9.9
2004-10-29 06:42:34 51°15.725 2°53.623 338.8 13.9 328 10
2004-10-29 06:42:40 51°15.745 2°53.603 338.7 13.9 328 10
2004-10-29 06:42:44 51°15.758 2°53.59 338.6 13.9 328 10.1
2004-10-29 06:42:50 51°15.778 2°53.571 338.6 13.9 328 10.1
2004-10-29 06:42:54 51°15.791 2°53.558 338.7 13.9 328 10.1
2004-10-29 06:43:00 51°15.811 2°53.538 338.7 13.9 328 10.1
2004-10-29 06:43:04 51°15.824 2°53.525 338.7 13.9 328 10.2
2004-10-29 06:43:10 51°15.844 2°53.506 338.7 13.9 328 10.2
2004-10-29 06:43:12 51°15.851 2°53.5 338.9 13.9 329 10.3
2004-10-29 06:43:19 51°15.874 2°53.478 339.6 13.8 330 10.3
2004-10-29 06:43:24 51°15.891 2°53.463 340.9 13.8 331 10.4
2004-10-29 06:43:30 51°15.911 2°53.446 341.8 13.8 332 10.4
2004-10-29 06:43:35 51°15.928 2°53.432 342.8 13.8 333 10.4
2004-10-29 06:43:40 51°15.945 2°53.419 343.5 13.8 334 10.5
2004-10-29 06:43:44 51°15.959 2°53.408 344.5 13.8 334 10.5
2004-10-29 06:43:50 51°15.98 2°53.393 345.1 13.7 335 10.6
2004-10-29 06:43:54 51°15.993 2°53.382 345.4 13.7 334 10.6
2004-10-29 06:44:00 51°16.014 2°53.366 345.3 13.8 334 10.7
2004-10-29 06:44:03 51°16.024 2°53.358 344.7 13.8 334 10.7
2004-10-29 06:44:10 51°16.048 2°53.338 344 13.8 333 10.8
2004-10-29 06:44:14 51°16.062 2°53.327 343.7 13.8 332 10.8
2004-10-29 06:44:20 51°16.082 2°53.31 343.5 13.8 333 10.9
2004-10-29 06:44:24 51°16.096 2°53.299 344 13.8 333 10.9
2004-10-29 06:44:30 51°16.117 2°53.283 344.7 13.8 334 10.9
2004-10-29 06:44:35 51°16.134 2°53.271 345.4 13.7 335 11
2004-10-29 06:44:40 51°16.151 2°53.258 345.7 13.7 335 11
2004-10-29 06:44:44 51°16.165 2°53.247 345.7 13.7 334 11.1
2004-10-29 06:44:50 51°16.185 2°53.232 345.4 13.7 334 11.1
2004-10-29 06:44:54 51°16.199 2°53.221 345.3 13.8 334 11.1
2004-10-29 06:44:59 51°16.216 2°53.207 344.9 13.7 333 11.1
2004-10-29 06:45:04 51°16.233 2°53.193 344.5 13.7 333 11.2
2004-10-29 06:45:10 51°16.253 2°53.177 344.2 13.7 333 11.1
2004-10-29 06:45:15 51°16.27 2°53.163 344 13.7 333 11.1
2004-10-29 06:45:18 51°16.28 2°53.155 343.9 13.7 333 11.2
2004-10-29 06:45:23 51°16.297 2°53.141 343.8 13.7 333 11.2
2004-10-29 06:45:30 51°16.32 2°53.122 344.1 13.7 333 11.2
2004-10-29 06:45:35 51°16.338 2°53.109 344.4 13.7 333 11.3
2004-10-29 06:45:38 51°16.348 2°53.1 344.7 13.7 334 11.2
2004-10-29 06:45:44 51°16.368 2°53.084 344.7 13.7 333 11.2
2004-10-29 06:45:50 51°16.389 2°53.068 344.7 13.7 334 11.2
2004-10-29 06:45:54 51°16.402 2°53.057 344.7 13.7 333 11.2
2004-10-29 06:46:00 51°16.422 2°53.041 344.6 13.7 333 11.2
2004-10-29 06:46:04 51°16.436 2°53.031 344.5 13.6 334 11.1
2004-10-29 06:46:10 51°16.456 2°53.014 344.6 13.7 333 11.1
2004-10-29 06:46:15 51°16.473 2°53.001 344.7 13.7 334 11.1
2004-10-29 06:46:20 51°16.49 2°52.988 344.7 13.7 334 11
2004-10-29 06:46:24 51°16.504 2°52.977 344.7 13.7 334 10.9
2004-10-29 06:46:30 51°16.524 2°52.961 344.7 13.7 333 10.8
2004-10-29 06:46:35 51°16.541 2°52.947 344.5 13.6 333 10.7
2004-10-29 06:46:40 51°16.558 2°52.934 344.2 13.6 333 10.6
2004-10-29 06:46:42 51°16.565 2°52.929 344.1 13.6 333 10.5
2004-10-29 06:46:50 51°16.592 2°52.907 344 13.6 333 10.5
2004-10-29 06:46:55 51°16.608 2°52.894 343.9 13.6 333 10.4
2004-10-29 06:46:58 51°16.618 2°52.886 343.9 13.6 334 10.3
2004-10-29 06:47:04 51°16.639 2°52.87 343.9 13.6 334 10.3
2004-10-29 06:47:10 51°16.659 2°52.854 344 13.6 334 10
2004-10-29 06:47:15 51°16.676 2°52.841 344 13.5 335 10
2004-10-29 06:47:19 51°16.689 2°52.831 344.3 13.5 335 9.8
2004-10-29 06:47:25 51°16.71 2°52.816 344.6 13.5 335 9.6
2004-10-29 06:47:30 51°16.726 2°52.803 344.9 13.5 335 9.4
2004-10-29 06:47:34 51°16.74 2°52.794 345.1 13.4 336 9.2
2004-10-29 06:47:46 51°16.78 2°52.765 345.4 13.2 336 8.4
2004-10-29 06:47:52 51°16.8 2°52.751 345.5 13.1 336 8.4
2004-10-29 06:47:58 51°16.819 2°52.736 345.3 13 335 8.5
2004-10-29 06:48:02 51°16.832 2°52.726 344.8 13 335 8.3
2004-10-29 06:48:08 51°16.851 2°52.711 343.7 13.1 333 8.1
2004-10-29 06:48:12 51°16.864 2°52.701 343.3 13.1 334 8.1
2004-10-29 06:48:18 51°16.884 2°52.685 342.8 13.1 333 8.1
2004-10-29 06:48:22 51°16.897 2°52.674 342.5 13.1 333 8.2
2004-10-29 06:48:27 51°16.913 2°52.661 342.3 13.1 333 8.3
2004-10-29 06:48:32 51°16.929 2°52.648 342.2 13.1 332 8.6
2004-10-29 06:48:38 51°16.948 2°52.632 342.4 13.2 333 8.5
2004-10-29 06:48:43 51°16.965 2°52.619 342.7 13.3 334 8.8
2004-10-29 06:48:46 51°16.975 2°52.611 343.2 13.4 334 8.8
2004-10-29 06:48:50 51°16.988 2°52.601 343.7 13.5 335 8.7
2004-10-29 06:49:02 51°17.029 2°52.571 344.7 13.4 335 8.4
2004-10-29 06:49:06 51°17.042 2°52.561 345 13.3 335 8.4
2004-10-29 06:49:12 51°17.062 2°52.547 345.1 13.2 335 8.4
2004-10-29 06:49:16 51°17.075 2°52.537 345.1 13.1 335 8.3
2004-10-29 06:49:22 51°17.095 2°52.522 345.1 13.1 335 8.3
2004-10-29 06:49:26 51°17.108 2°52.512 344.7 13.2 334 8.4
2004-10-29 06:49:31 51°17.125 2°52.499 344.1 13.3 334 8.4
2004-10-29 06:49:36 51°17.141 2°52.485 343.4 13.3 333 8.6
2004-10-29 06:49:42 51°17.161 2°52.469 343 13.3 333 8.6
2004-10-29 06:49:44 51°17.168 2°52.464 342.5 13.4 333 8.5
2004-10-29 06:49:52 51°17.194 2°52.442 342.5 13.4 332 8.7
2004-10-29 06:49:56 51°17.207 2°52.431 342.3 13.4 333 8.6
2004-10-29 06:50:02 51°17.227 2°52.416 342.8 13.4 334 8.8
2004-10-29 06:50:06 51°17.24 2°52.405 343.3 13.4 334 8.8
2004-10-29 06:50:12 51°17.261 2°52.39 344.2 13.4 335 8.9
2004-10-29 06:50:14 51°17.268 2°52.385 344.9 13.5 335 9
2004-10-29 06:50:22 51°17.295 2°52.365 345.1 13.5 335 9.1
2004-10-29 06:50:27 51°17.312 2°52.352 345.1 13.5 335 9.1
2004-10-29 06:50:32 51°17.329 2°52.339 344.6 13.5 334 9.1
2004-10-29 06:50:36 51°17.342 2°52.328 344.1 13.5 334 9.2
2004-10-29 06:50:41 51°17.359 2°52.315 344.1 13.5 334 9.2
2004-10-29 06:50:46 51°17.376 2°52.302 344.1 13.5 334 9.1
2004-10-29 06:50:51 51°17.393 2°52.289 344.2 13.5 334 9.2
2004-10-29 06:51:02 51°17.43 2°52.261 344.7 13.5 335 9.3
2004-10-29 06:51:10 51°17.457 2°52.241 344.9 13.5 335 9.3
2004-10-29 06:51:15 51°17.474 2°52.229 345.1 13.5 335 9.2
2004-10-29 06:51:20 51°17.491 2°52.216 345.5 13.5 336 9.2
2004-10-29 06:51:24 51°17.505 2°52.206 345.7 13.5 336 9.2
2004-10-29 06:51:30 51°17.525 2°52.192 345.6 13.4 336 9.3
2004-10-29 06:51:34 51°17.538 2°52.182 345.7 13.4 336 9.3
2004-10-29 06:51:39 51°17.556 2°52.169 345.2 13.4 335 9.2
2004-10-29 06:51:44 51°17.572 2°52.156 344.8 13.5 334 9.2
2004-10-29 06:51:49 51°17.589 2°52.143 344.2 13.4 334 9.2
2004-10-29 06:51:54 51°17.606 2°52.13 344 13.5 334 9
2004-10-29 06:52:00 51°17.626 2°52.114 343.8 13.4 334 9.2
2004-10-29 06:52:03 51°17.636 2°52.107 343.9 13.4 334 9.3
2004-10-29 06:52:16 51°17.68 2°52.074 344.6 13.4 335 9.1
2004-10-29 06:52:22 51°17.7 2°52.059 344.8 13.4 335 9.3
2004-10-29 06:52:27 51°17.717 2°52.046 345 13.4 335 9.1
2004-10-29 06:52:32 51°17.734 2°52.034 345 13.4 335 9.4
2004-10-29 06:52:36 51°17.747 2°52.023 344.7 13.4 335 9.3
2004-10-29 06:52:42 51°17.767 2°52.008 344.4 13.4 335 9.1
2004-10-29 06:52:47 51°17.784 2°51.995 344.4 13.4 334 9.1
2004-10-29 06:52:51 51°17.797 2°51.985 344.4 13.4 335 9.1
2004-10-29 06:52:56 51°17.814 2°51.972 344.5 13.4 334 9.1
2004-10-29 06:53:02 51°17.834 2°51.957 344.7 13.4 335 9
2004-10-29 06:53:06 51°17.848 2°51.947 344.9 13.4 335 9.2
2004-10-29 06:53:11 51°17.865 2°51.934 345 13.4 335 9.2
2004-10-29 06:53:15 51°17.878 2°51.924 345.2 13.4 335 9.2
2004-10-29 06:53:22 51°17.902 2°51.907 345.3 13.4 335 9.2
2004-10-29 06:53:26 51°17.915 2°51.897 345.1 13.4 335 9.3
2004-10-29 06:53:32 51°17.936 2°51.881 344.7 13.4 334 9.3
2004-10-29 06:53:34 51°17.942 2°51.876 344.3 13.5 334 9.1
2004-10-29 06:53:43 51°17.973 2°51.852 344 13.5 334 9.3
2004-10-29 06:53:48 51°17.989 2°51.839 344 13.5 334 9.3
2004-10-29 06:53:54 51°18.01 2°51.823 344 13.5 334 9.4
2004-10-29 06:53:58 51°18.023 2°51.812 344 13.6 334 9.5
2004-10-29 06:54:03 51°18.04 2°51.799 344 13.6 334 9.6
2004-10-29 06:54:08 51°18.057 2°51.786 344.2 13.6 334 9.5
2004-10-29 06:54:11 51°18.067 2°51.778 344.3 13.6 334 9.5
2004-10-29 06:54:24 51°18.111 2°51.744 344.4 13.6 334 9.9
2004-10-29 06:54:30 51°18.132 2°51.728 344.6 13.6 334 9.9
2004-10-29 06:54:35 51°18.149 2°51.715 344.4 13.7 334 9.8
2004-10-29 06:54:40 51°18.166 2°51.701 344 13.7 334 10.1
2004-10-29 06:54:44 51°18.18 2°51.691 344 13.7 333 10
2004-10-29 06:54:50 51°18.201 2°51.675 343.8 13.7 334 10.1
2004-10-29 06:54:54 51°18.215 2°51.664 344 13.7 334 10.3
2004-10-29 06:55:00 51°18.235 2°51.648 344.1 13.7 334 10.3
2004-10-29 06:55:04 51°18.249 2°51.638 344.4 13.7 335 10.5
2004-10-29 06:55:10 51°18.27 2°51.622 344.9 13.7 334 10.4
2004-10-29 06:55:15 51°18.287 2°51.609 344.9 13.7 335 10.7
2004-10-29 06:55:20 51°18.304 2°51.596 344.7 13.7 335 10.6
2004-10-29 06:55:24 51°18.318 2°51.585 344.5 13.7 334 11.1
2004-10-29 06:55:30 51°18.338 2°51.569 344.1 13.7 334 10.9
2004-10-29 06:55:34 51°18.352 2°51.558 344.1 13.7 333 11.1
2004-10-29 06:55:39 51°18.369 2°51.545 344 13.7 334 11.3
2004-10-29 06:55:52 51°18.413 2°51.51 344.2 13.7 333 11.6
2004-10-29 06:55:54 51°18.42 2°51.504 344.2 13.7 334 11.7
2004-10-29 06:56:03 51°18.451 2°51.48 344.2 13.7 333 11.8
2004-10-29 06:56:07 51°18.464 2°51.469 344 13.7 333 12
2004-10-29 06:56:12 51°18.481 2°51.455 344 13.7 333 12
2004-10-29 06:56:18 51°18.502 2°51.439 343.6 13.7 333 12.1
2004-10-29 06:56:23 51°18.519 2°51.425 344 13.7 333 12.2
2004-10-29 06:56:28 51°18.536 2°51.412 343.9 13.7 334 12.4
2004-10-29 06:56:30 51°18.542 2°51.407 343.9 13.6 333 12.5
2004-10-29 06:56:36 51°18.563 2°51.39 344 13.7 333 12.5
2004-10-29 06:56:42 51°18.583 2°51.374 344 13.7 334 12.6
2004-10-29 06:56:48 51°18.603 2°51.358 344 13.6 334 12.8
2004-10-29 06:56:50 51°18.61 2°51.353 344.1 13.6 334 12.9
2004-10-29 06:56:58 51°18.638 2°51.332 344.7 13.6 334 12.9
2004-10-29 06:57:02 51°18.651 2°51.321 344.7 13.6 333 12.9
2004-10-29 06:57:06 51°18.665 2°51.31 344.1 13.6 334 13
2004-10-29 06:57:12 51°18.685 2°51.294 344 13.6 333 13.1
2004-10-29 06:57:18 51°18.705 2°51.278 344.1 13.6 334 13.2
2004-10-29 06:57:22 51°18.719 2°51.267 344.3 13.7 333 13.2
2004-10-29 06:57:28 51°18.739 2°51.251 344.3 13.6 334 13.2
2004-10-29 06:57:39 51°18.776 2°51.222 344.3 13.6 334 13.3
2004-10-29 06:57:46 51°18.8 2°51.203 344 13.6 334 13.4
2004-10-29 06:57:50 51°18.813 2°51.192 344 13.6 333 13.5
2004-10-29 06:57:56 51°18.834 2°51.176 344 13.6 334 13.5
2004-10-29 06:57:58 51°18.84 2°51.171 344 13.6 334 13.6
2004-10-29 06:58:06 51°18.867 2°51.149 344.4 13.6 334 13.7
2004-10-29 06:58:10 51°18.881 2°51.138 344.6 13.6 333 13.7
2004-10-29 06:58:16 51°18.901 2°51.122 344.4 13.6 333 13.8
2004-10-29 06:58:20 51°18.914 2°51.111 343.9 13.6 333 13.7
2004-10-29 06:58:24 51°18.928 2°51.1 343.6 13.6 333 13.8
2004-10-29 06:58:31 51°18.951 2°51.081 343.6 13.6 333 13.8
2004-10-29 06:58:36 51°18.968 2°51.068 343.8 13.6 334 13.9
2004-10-29 06:58:40 51°18.982 2°51.057 344 13.6 334 13.7
2004-10-29 06:58:46 51°19.002 2°51.041 344.1 13.6 334 13.8
2004-10-29 06:58:50 51°19.016 2°51.03 344.4 13.5 334 13.9
2004-10-29 06:58:56 51°19.036 2°51.014 344.5 13.6 334 13.9
2004-10-29 06:59:00 51°19.049 2°51.003 344.5 13.6 334 13.8
2004-10-29 06:59:06 51°19.069 2°50.987 344.3 13.6 333 14
2004-10-29 06:59:10 51°19.083 2°50.976 343.9 13.6 333 13.9
2004-10-29 06:59:16 51°19.103 2°50.96 343.9 13.6 333 13.9
2004-10-29 06:59:21 51°19.12 2°50.946 344 13.6 333 13.9
2004-10-29 06:59:26 51°19.137 2°50.932 344.2 13.6 333 13.6
2004-10-29 06:59:28 51°19.143 2°50.927 344.2 13.6 333 13.8
2004-10-29 06:59:38 51°19.177 2°50.9 344.2 13.6 333 13.8
2004-10-29 06:59:48 51°19.211 2°50.873 344.1 13.6 334 13.6
2004-10-29 06:59:54 51°19.231 2°50.856 344.3 13.6 333 13.6
2004-10-29 06:59:59 51°19.248 2°50.843 344.3 13.6 334 13.3
2004-10-29 07:00:10 51°19.285 2°50.814 344.7 13.6 333 13.3
2004-10-29 07:00:16 51°19.306 2°50.798 344.4 13.6 333 13.2
2004-10-29 07:00:22 51°19.326 2°50.781 344.2 13.6 333 13.2
2004-10-29 07:00:27 51°19.343 2°50.767 343.9 13.6 333 13.1
2004-10-29 07:00:30 51°19.353 2°50.759 343.6 13.6 333 12.9
2004-10-29 07:00:36 51°19.373 2°50.743 343.7 13.6 333 12.5
2004-10-29 07:00:40 51°19.386 2°50.732 344 13.5 333 12.4
2004-10-29 07:00:47 51°19.41 2°50.714 344.3 13.5 334 12.1
2004-10-29 07:00:50 51°19.42 2°50.706 344.6 13.5 334 11.8
2004-10-29 07:00:58 51°19.447 2°50.685 344.8 13.5 334 11.8
2004-10-29 07:01:02 51°19.461 2°50.674 345.2 13.6 335 11.6
2004-10-29 07:01:07 51°19.477 2°50.661 344.9 13.6 333 11.5
2004-10-29 07:01:10 51°19.487 2°50.653 344.3 13.5 333 11.4
2004-10-29 07:01:15 51°19.504 2°50.64 344.5 13.6 334 11.3
2004-10-29 07:01:22 51°19.528 2°50.621 344.7 13.6 334 11.2
2004-10-29 07:01:26 51°19.542 2°50.611 344.8 13.6 334 11.3
2004-10-29 07:01:31 51°19.559 2°50.598 345.2 13.6 334 11.1
2004-10-29 07:01:36 51°19.576 2°50.585 345.1 13.6 334 10.9
2004-10-29 07:01:42 51°19.596 2°50.569 344.8 13.6 334 10.8
2004-10-29 07:01:46 51°19.609 2°50.558 344.4 13.6 334 10.4
2004-10-29 07:01:51 51°19.626 2°50.545 344.2 13.6 333 10.8
2004-10-29 07:01:56 51°19.643 2°50.531 343.7 13.6 333 10.9
2004-10-29 07:02:02 51°19.663 2°50.515 343.6 13.6 334 10.9
2004-10-29 07:02:07 51°19.68 2°50.501 343.9 13.7 334 10.9
2004-10-29 07:02:11 51°19.694 2°50.491 344.1 13.8 334 11.3
2004-10-29 07:02:15 51°19.708 2°50.48 344.7 13.8 334 11.3
2004-10-29 07:02:28 51°19.753 2°50.444 344.1 13.8 334 11.8
2004-10-29 07:02:32 51°19.766 2°50.433 344 13.9 333 12.1
2004-10-29 07:02:38 51°19.787 2°50.417 344 13.8 334 12.3
2004-10-29 07:02:43 51°19.804 2°50.404 344.2 13.8 334 12.4
2004-10-29 07:02:47 51°19.818 2°50.393 344.2 13.8 334 12.5
2004-10-29 07:02:51 51°19.832 2°50.382 344.2 13.8 334 12.6
2004-10-29 07:02:58 51°19.856 2°50.363 343.8 13.8 334 12.8
2004-10-29 07:03:02 51°19.87 2°50.352 343.4 13.9 334 12.9
2004-10-29 07:03:07 51°19.887 2°50.338 343.7 13.9 334 13
2004-10-29 07:03:12 51°19.904 2°50.325 343.9 13.9 334 13.2
2004-10-29 07:03:18 51°19.925 2°50.308 344 13.9 333 13.2
2004-10-29 07:03:23 51°19.942 2°50.295 344.2 13.9 334 13.2
2004-10-29 07:03:28 51°19.959 2°50.281 344.5 13.8 335 13.2
2004-10-29 07:03:33 51°19.976 2°50.268 344.5 13.8 334 13.3
2004-10-29 07:03:38 51°19.994 2°50.254 344.3 13.8 334 13.4
2004-10-29 07:03:43 51°20.011 2°50.241 344.2 13.8 334 13.5
2004-10-29 07:03:48 51°20.028 2°50.227 344.2 13.8 334 13.7
2004-10-29 07:03:58 51°20.062 2°50.2 344 13.8 333 14.2
2004-10-29 07:04:02 51°20.076 2°50.189 344 13.8 334 14.6
2004-10-29 07:04:06 51°20.089 2°50.179 344.2 13.8 334 14.9
2004-10-29 07:04:12 51°20.11 2°50.163 344.4 13.8 334 15.1
2004-10-29 07:04:18 51°20.131 2°50.147 344.6 13.8 334 15.4
2004-10-29 07:04:23 51°20.148 2°50.133 344.7 13.8 334 15.6
2004-10-29 07:04:28 51°20.165 2°50.12 344.6 13.8 334 15.9
2004-10-29 07:04:32 51°20.179 2°50.109 344.1 13.8 334 16.1
2004-10-29 07:04:38 51°20.199 2°50.093 344.1 13.8 334 16.4
2004-10-29 07:04:43 51°20.217 2°50.079 344.1 13.8 334 16.8
2004-10-29 07:04:48 51°20.233 2°50.065 344 13.8 334 17
2004-10-29 07:04:52 51°20.247 2°50.054 343.8 13.8 333 17.2
2004-10-29 07:04:58 51°20.268 2°50.038 343.4 13.8 333 17.5
2004-10-29 07:05:03 51°20.285 2°50.024 344 13.8 334 17.8
2004-10-29 07:05:08 51°20.302 2°50.011 344 13.8 333 18
2004-10-29 07:05:10 51°20.309 2°50.005 344 13.8 333 18.2
2004-10-29 07:05:18 51°20.336 2°49.983 343.6 13.8 333 18.5
2004-10-29 07:05:23 51°20.353 2°49.969 343.9 13.8 334 18.8
2004-10-29 07:05:27 51°20.367 2°49.959 343.9 13.7 334 18.9
2004-10-29 07:05:33 51°20.387 2°49.942 344.3 13.7 334 19.3
2004-10-29 07:05:38 51°20.404 2°49.929 344.6 13.7 334 19.6
2004-10-29 07:05:42 51°20.418 2°49.918 344.5 13.7 333 19.9
2004-10-29 07:05:47 51°20.435 2°49.905 344.3 13.7 333 20.1
2004-10-29 07:05:52 51°20.452 2°49.891 344 13.7 333 20.3
2004-10-29 07:05:58 51°20.472 2°49.875 343.9 13.7 333 20.6
2004-10-29 07:06:02 51°20.486 2°49.864 344.1 13.7 333 20.8
2004-10-29 07:06:08 51°20.506 2°49.847 344.2 13.7 333 21
2004-10-29 07:06:12 51°20.52 2°49.837 344.4 13.7 334 21.2
2004-10-29 07:06:16 51°20.533 2°49.826 344.4 13.7 333 21.3
2004-10-29 07:06:20 51°20.547 2°49.815 344.2 13.7 333 21.4
2004-10-29 07:06:32 51°20.587 2°49.782 344.4 13.7 333 21.7
2004-10-29 07:06:38 51°20.608 2°49.766 344.7 13.7 334 21.8
2004-10-29 07:06:42 51°20.622 2°49.755 344.7 13.7 333 21.9
2004-10-29 07:06:48 51°20.642 2°49.739 344.5 13.7 333 22.1
2004-10-29 07:06:53 51°20.659 2°49.725 344.2 13.8 333 22.1
2004-10-29 07:06:58 51°20.676 2°49.711 343.7 13.8 332 22.2
2004-10-29 07:07:03 51°20.693 2°49.698 344 13.8 332 22.1
2004-10-29 07:07:08 51°20.71 2°49.684 344.3 13.7 333 22
2004-10-29 07:07:11 51°20.72 2°49.676 344.9 13.7 334 22.2
2004-10-29 07:07:18 51°20.744 2°49.657 344.9 13.7 334 22.3
2004-10-29 07:07:23 51°20.761 2°49.643 344.7 13.7 333 22.3
2004-10-29 07:07:26 51°20.771 2°49.635 344.1 13.7 333 22.2
2004-10-29 07:07:32 51°20.791 2°49.618 343.9 13.7 333 22.2
2004-10-29 07:07:38 51°20.812 2°49.601 344.2 13.7 333 22.2
2004-10-29 07:07:43 51°20.829 2°49.588 344.5 13.6 333 22.2
2004-10-29 07:07:56 51°20.873 2°49.553 344.8 13.6 334 22.2
2004-10-29 07:08:02 51°20.893 2°49.536 344.7 13.6 334 22.4
2004-10-29 07:08:03 51°20.896 2°49.533 344.6 13.7 333 22.2
2004-10-29 07:08:12 51°20.927 2°49.508 344.2 13.7 333 22.2
2004-10-29 07:08:16 51°20.94 2°49.497 344.1 13.6 332 22.1
2004-10-29 07:08:22 51°20.96 2°49.48 343.9 13.6 333 22.2
2004-10-29 07:08:26 51°20.973 2°49.469 344 13.6 333 22.1
2004-10-29 07:08:31 51°20.99 2°49.455 344.4 13.6 333 22.1
2004-10-29 07:08:35 51°21.004 2°49.444 344.3 13.6 333 21.8
2004-10-29 07:08:42 51°21.027 2°49.425 344.5 13.6 333 21.9
2004-10-29 07:08:46 51°21.04 2°49.414 344.4 13.6 332 21.8
2004-10-29 07:08:52 51°21.06 2°49.397 344 13.6 332 21.8
2004-10-29 07:08:57 51°21.077 2°49.382 343.5 13.6 332 21.6
2004-10-29 07:09:02 51°21.094 2°49.368 343.3 13.7 332 21.5
2004-10-29 07:09:06 51°21.107 2°49.357 343.6 13.6 333 21.5
2004-10-29 07:09:12 51°21.127 2°49.341 344 13.6 333 21.4
2004-10-29 07:09:15 51°21.137 2°49.332 344.7 13.6 332 21.5
2004-10-29 07:09:22 51°21.161 2°49.314 344.7 13.6 332 21.5
2004-10-29 07:09:26 51°21.175 2°49.303 345.4 13.6 334 21.4
2004-10-29 07:09:32 51°21.195 2°49.287 345 13.6 334 21.5
2004-10-29 07:09:35 51°21.205 2°49.279 344.7 13.6 333 21.3
2004-10-29 07:09:41 51°21.225 2°49.263 344.7 13.6 334 21.3
2004-10-29 07:09:52 51°21.262 2°49.233 344.5 13.6 333 21.1
2004-10-29 07:09:58 51°21.282 2°49.216 344.2 13.6 332 21.1
2004-10-29 07:10:02 51°21.296 2°49.205 344.1 13.6 333 20.9
2004-10-29 07:10:08 51°21.316 2°49.188 344.2 13.6 333 21
2004-10-29 07:10:10 51°21.322 2°49.183 344.2 13.7 333 21
2004-10-29 07:10:18 51°21.349 2°49.161 344.1 13.7 333 20.9
2004-10-29 07:10:22 51°21.363 2°49.15 344.2 13.7 333 20.8
2004-10-29 07:10:28 51°21.383 2°49.133 344 13.7 333 20.9
2004-10-29 07:10:33 51°21.4 2°49.119 343.9 13.7 333 20.9
2004-10-29 07:10:34 51°21.404 2°49.117 344.2 13.7 333 20.8
2004-10-29 07:10:43 51°21.434 2°49.092 344.2 13.7 333 20.7
2004-10-29 07:10:56 51°21.479 2°49.057 344.8 13.7 334 20.7
2004-10-29 07:11:02 51°21.499 2°49.041 344.9 13.7 334 20.6
2004-10-29 07:11:06 51°21.513 2°49.03 344.6 13.6 333 20.9
2004-10-29 07:11:11 51°21.53 2°49.016 344.3 13.7 333 21.1
2004-10-29 07:11:16 51°21.547 2°49.003 344.2 13.7 333 21.2
2004-10-29 07:11:22 51°21.567 2°48.986 344.7 13.7 333 21.3
2004-10-29 07:11:27 51°21.584 2°48.973 344.5 13.7 333 21.6
2004-10-29 07:11:32 51°21.601 2°48.959 344.3 13.8 333 21.7
2004-10-29 07:11:37 51°21.618 2°48.945 344.5 13.7 333 21.9
2004-10-29 07:11:42 51°21.635 2°48.932 344.4 13.7 334 22.1
2004-10-29 07:11:48 51°21.655 2°48.915 344.7 13.7 334 22.2
2004-10-29 07:11:51 51°21.666 2°48.908 344.7 13.7 334 22.4
2004-10-29 07:11:54 51°21.676 2°48.899 344.4 13.7 333 22.4
2004-10-29 07:12:02 51°21.703 2°48.877 343.9 13.7 333 22.5
2004-10-29 07:12:07 51°21.72 2°48.863 344 13.7 333 22.5
2004-10-29 07:12:10 51°21.73 2°48.855 344 13.7 333 22.6
2004-10-29 07:12:16 51°21.75 2°48.839 344.5 13.6 334 22.6
2004-10-29 07:12:22 51°21.771 2°48.824 344.8 13.6 334 22.6
2004-10-29 07:12:27 51°21.788 2°48.81 344.9 13.7 333 22.6
2004-10-29 07:12:32 51°21.805 2°48.796 344.4 13.7 334 22.8
2004-10-29 07:12:44 51°21.846 2°48.764 344.2 13.7 333 22.7
2004-10-29 07:12:49 51°21.862 2°48.75 344.3 13.8 333 22.7
2004-10-29 07:12:54 51°21.879 2°48.737 344.5 13.8 333 22.8
2004-10-29 07:12:59 51°21.896 2°48.723 344.4 13.8 334 22.6
2004-10-29 07:13:04 51°21.913 2°48.71 344.4 13.8 334 22.9
2004-10-29 07:13:08 51°21.927 2°48.698 344.2 13.8 333 22.5
2004-10-29 07:13:14 51°21.947 2°48.682 343.9 13.8 333 22.5
2004-10-29 07:13:19 51°21.964 2°48.668 344 13.8 333 22.4
2004-10-29 07:13:22 51°21.975 2°48.66 344 13.7 333 22.8
2004-10-29 07:13:28 51°21.995 2°48.643 344.2 13.8 333 22.8
2004-10-29 07:13:34 51°22.015 2°48.627 344 13.8 333 22.7
2004-10-29 07:13:38 51°22.029 2°48.616 344 13.7 334 22.6
2004-10-29 07:13:43 51°22.046 2°48.603 344.7 13.6 335 23
2004-10-29 07:13:48 51°22.063 2°48.589 345 13.7 333 22.7
2004-10-29 07:13:54 51°22.083 2°48.573 344.6 13.8 333 22.9
2004-10-29 07:13:59 51°22.1 2°48.559 344.2 13.8 334 22.9
2004-10-29 07:14:02 51°22.111 2°48.551 344.2 13.8 334 22.9
2004-10-29 07:14:07 51°22.128 2°48.537 344.7 13.8 333 23
2004-10-29 07:14:18 51°22.165 2°48.508 344.2 13.8 334 23.1
2004-10-29 07:14:23 51°22.182 2°48.494 344.6 13.8 334 22.9
2004-10-29 07:14:28 51°22.199 2°48.48 344.1 13.7 333 22.6
2004-10-29 07:14:31 51°22.21 2°48.472 344.2 13.7 334 22.5
2004-10-29 07:14:38 51°22.233 2°48.453 344.2 13.7 334 22.2
2004-10-29 07:14:42 51°22.247 2°48.443 344.3 13.7 334 22
2004-10-29 07:14:46 51°22.261 2°48.432 344.6 13.7 334 21.5
2004-10-29 07:14:51 51°22.278 2°48.418 344.5 13.7 334 21.2
2004-10-29 07:14:56 51°22.295 2°48.405 344.4 13.6 333 20.6
2004-10-29 07:15:02 51°22.315 2°48.389 344.5 13.7 334 20.4
2004-10-29 07:15:07 51°22.332 2°48.375 344.6 13.7 334 19.7
2004-10-29 07:15:12 51°22.349 2°48.361 344 13.7 332 18.2
2004-10-29 07:15:24 51°22.389 2°48.329 343.4 13.5 333 18.3
2004-10-29 07:15:30 51°22.409 2°48.312 343.1 13.6 333 17.8
2004-10-29 07:15:35 51°22.426 2°48.299 343.6 13.6 333 17.2
2004-10-29 07:15:39 51°22.44 2°48.288 343.8 13.6 333 17
2004-10-29 07:15:44 51°22.456 2°48.274 344.1 13.5 334 16.9
2004-10-29 07:15:50 51°22.476 2°48.259 344.1 13.4 334 16.9
2004-10-29 07:15:55 51°22.493 2°48.246 344.6 13.4 334 16.5
2004-10-29 07:15:59 51°22.507 2°48.236 345 13.4 334 15.6
2004-10-29 07:16:04 51°22.524 2°48.223 344.9 13.4 334 14
2004-10-29 07:16:10 51°22.543 2°48.207 344.5 13.3 334 12.6
2004-10-29 07:16:14 51°22.557 2°48.197 345.4 13.2 335 11.8
2004-10-29 07:16:20 51°22.577 2°48.183 346.1 13.2 335 14.8
2004-10-29 07:16:24 51°22.59 2°48.173 346.2 13.2 338 16.1
2004-10-29 07:16:30 51°22.611 2°48.161 348.4 13.2 338 16.7
2004-10-29 07:16:32 51°22.618 2°48.157 349.7 13.3 339 17.1
2004-10-29 07:16:40 51°22.645 2°48.141 350.6 13.3 339 17.5
2004-10-29 07:16:44 51°22.659 2°48.133 349.9 13.3 340 17.7
2004-10-29 07:16:50 51°22.68 2°48.12 350.3 13.3 340 17.2
2004-10-29 07:16:55 51°22.697 2°48.11 350 13.3 339 16.9
2004-10-29 07:17:00 51°22.714 2°48.099 349.7 13.3 339 16
2004-10-29 07:17:02 51°22.721 2°48.095 349.6 13.3 337 14.9
2004-10-29 07:17:10 51°22.748 2°48.077 348.6 13.3 337 16.8
2004-10-29 07:17:15 51°22.765 2°48.065 348.5 13.3 338 17.6
2004-10-29 07:17:20 51°22.783 2°48.055 348.7 13.3 338 17.3
2004-10-29 07:17:24 51°22.797 2°48.046 349.6 13.3 340 17.7
2004-10-29 07:17:30 51°22.817 2°48.033 349.8 13.3 340 17.8
2004-10-29 07:17:35 51°22.834 2°48.023 349.5 13.2 339 18
2004-10-29 07:17:40 51°22.851 2°48.012 349.6 13.2 338 17.7
2004-10-29 07:17:42 51°22.858 2°48.008 349.4 13.3 339 17.8
2004-10-29 07:17:50 51°22.886 2°47.99 349.8 13.3 339 17.4
2004-10-29 07:17:55 51°22.903 2°47.98 349.7 13.3 339 17.4
2004-10-29 07:18:00 51°22.92 2°47.969 349.9 13.3 339 17.4
2004-10-29 07:18:04 51°22.934 2°47.96 348.9 13.4 337 17.4
2004-10-29 07:18:10 51°22.955 2°47.946 349.1 13.4 337 17.8
2004-10-29 07:18:14 51°22.968 2°47.937 348.9 13.3 337 17.9
2004-10-29 07:18:20 51°22.989 2°47.924 348.9 13.3 337 18.2
2004-10-29 07:18:24 51°23.003 2°47.915 348.8 13.3 337 18.6
2004-10-29 07:18:30 51°23.023 2°47.901 348.9 13.4 338 19
2004-10-29 07:18:35 51°23.041 2°47.89 348.9 13.3 338 19.3
2004-10-29 07:18:40 51°23.058 2°47.88 349.3 13.4 339 19.2
2004-10-29 07:18:44 51°23.072 2°47.871 349.8 13.4 338 19.2
2004-10-29 07:18:50 51°23.092 2°47.857 349.5 13.4 338 19.1
2004-10-29 07:18:54 51°23.106 2°47.849 349.1 13.4 338 18.7
2004-10-29 07:18:59 51°23.123 2°47.837 349.3 13.4 338 18.5
2004-10-29 07:19:05 51°23.144 2°47.824 349.4 13.4 338 18.6
2004-10-29 07:19:10 51°23.161 2°47.813 348.9 13.5 337 19.2
2004-10-29 07:19:15 51°23.178 2°47.801 349 13.5 337 19.4
2004-10-29 07:19:18 51°23.189 2°47.794 348.6 13.4 337 19.4
2004-10-29 07:19:24 51°23.21 2°47.781 348.9 13.4 338 19.8
2004-10-29 07:19:30 51°23.23 2°47.768 349.2 13.4 338 19.9
2004-10-29 07:19:34 51°23.244 2°47.761 349.8 13.3 340 20.2
2004-10-29 07:19:40 51°23.265 2°47.747 350.5 13.4 338 20
2004-10-29 07:19:44 51°23.279 2°47.738 349.6 13.3 339 20.1
2004-10-29 07:19:50 51°23.299 2°47.725 349.5 13.3 339 20.4
2004-10-29 07:19:55 51°23.317 2°47.715 349.3 13.3 339 20.4
2004-10-29 07:19:59 51°23.331 2°47.706 349.4 13.4 338 20.5
2004-10-29 07:20:05 51°23.351 2°47.693 349.9 13.4 339 20.7
2004-10-29 07:20:10 51°23.369 2°47.683 349.7 13.4 339 20.8
2004-10-29 07:20:14 51°23.383 2°47.674 349.8 13.4 338 20.6
2004-10-29 07:20:20 51°23.403 2°47.66 349.2 13.4 337 20.1
2004-10-29 07:20:34 51°23.451 2°47.629 349.2 13.4 339 19.9
2004-10-29 07:20:39 51°23.468 2°47.618 349.6 13.3 338 20.2
2004-10-29 07:20:42 51°23.479 2°47.612 349.2 13.3 338 20.1
2004-10-29 07:20:48 51°23.499 2°47.599 350.1 13.3 339 20.5
2004-10-29 07:20:54 51°23.52 2°47.586 349.8 13.3 339 20.6
2004-10-29 07:20:58 51°23.534 2°47.578 350 13.5 339 20.9
2004-10-29 07:21:03 51°23.551 2°47.567 350 13.5 338 21.3
2004-10-29 07:21:08 51°23.569 2°47.555 349.3 13.4 338 21.7
2004-10-29 07:21:14 51°23.589 2°47.542 349.1 13.4 338 21.9
2004-10-29 07:21:18 51°23.603 2°47.533 348.9 13.3 339 21.7
2004-10-29 07:21:22 51°23.617 2°47.525 349.4 13.3 340 22.3
2004-10-29 07:21:27 51°23.634 2°47.514 350 13.4 339 22.3
2004-10-29 07:21:34 51°23.659 2°47.499 350 13.4 339 22.2
2004-10-29 07:21:38 51°23.672 2°47.49 349.9 13.4 339 22.7
2004-10-29 07:21:43 51°23.69 2°47.48 349.2 13.5 338 22.4
2004-10-29 07:21:48 51°23.707 2°47.469 349 13.4 339 22.7
2004-10-29 07:21:54 51°23.728 2°47.455 349.3 13.5 337 22.7
2004-10-29 07:21:59 51°23.745 2°47.443 348.3 13.5 337 23.2
2004-10-29 07:22:02 51°23.755 2°47.436 348.2 13.5 337 23.5
2004-10-29 07:22:09 51°23.779 2°47.42 348.2 13.4 337 23.6
2004-10-29 07:22:12 51°23.79 2°47.413 348.3 13.4 337 23.6
2004-10-29 07:22:18 51°23.81 2°47.401 349.4 13.3 338 23.5
2004-10-29 07:22:24 51°23.831 2°47.388 349.6 13.3 338 22.6
2004-10-29 07:22:28 51°23.845 2°47.38 350.5 13.2 340 21.8
2004-10-29 07:22:34 51°23.865 2°47.368 351 13.2 340 19.9
2004-10-29 07:22:38 51°23.879 2°47.358 350.5 13.4 337 18.8
2004-10-29 07:22:44 51°23.9 2°47.344 349.3 13.4 337 19
2004-10-29 07:22:47 51°23.91 2°47.337 347.9 13.4 338 20.2
2004-10-29 07:22:58 51°23.947 2°47.312 349.5 13.4 338 22.1
2004-10-29 07:23:03 51°23.965 2°47.301 349.4 13.4 338 23.4
2004-10-29 07:23:06 51°23.975 2°47.294 349.2 13.4 337 24.1
2004-10-29 07:23:13 51°23.999 2°47.28 349.6 13.4 340 24.8
2004-10-29 07:23:18 51°24.017 2°47.269 349.8 13.3 339 24.8
2004-10-29 07:23:22 51°24.03 2°47.26 350.4 13.4 338 25.2
2004-10-29 07:23:28 51°24.051 2°47.248 349.8 13.3 339 25.4
2004-10-29 07:23:33 51°24.069 2°47.237 350.3 13.3 339 25.6
2004-10-29 07:23:38 51°24.086 2°47.227 350.5 13.3 339 25.9
2004-10-29 07:23:42 51°24.1 2°47.218 349.6 13.4 338 26.3
2004-10-29 07:23:56 51°24.148 2°47.187 349.2 13.4 339 25.8
2004-10-29 07:24:06 51°24.182 2°47.166 349.7 13.2 339 26.5
2004-10-29 07:24:14 51°24.209 2°47.149 349.6 13.2 338 26.6
2004-10-29 07:24:19 51°24.226 2°47.138 349.5 13.2 338 26.3
2004-10-29 07:24:23 51°24.24 2°47.13 350 13.2 339 26
2004-10-29 07:24:26 51°24.25 2°47.123 349.2 13.3 338 26.8
2004-10-29 07:24:34 51°24.278 2°47.105 349 13.3 338 27
2004-10-29 07:24:39 51°24.295 2°47.094 349.4 13.2 339 27.5
2004-10-29 07:24:43 51°24.308 2°47.086 349.5 13.3 339 28
2004-10-29 07:24:48 51°24.325 2°47.074 348.9 13.3 339 28.4
2004-10-29 07:24:54 51°24.346 2°47.061 349.6 13.2 339 28.4
2004-10-29 07:24:59 51°24.363 2°47.049 348.5 13.3 337 28.6
2004-10-29 07:25:03 51°24.376 2°47.041 349.3 13.2 339 29
2004-10-29 07:25:08 51°24.393 2°47.029 349.5 13.2 339 29.7
2004-10-29 07:25:14 51°24.414 2°47.016 348.9 13.2 339 30.1
2004-10-29 07:25:19 51°24.431 2°47.005 349.4 13.2 338 30.2
2004-10-29 07:25:24 51°24.448 2°46.995 349.3 13.2 338 30.2
2004-10-29 07:25:28 51°24.461 2°46.985 349.4 13.2 339 30.1
2004-10-29 07:25:34 51°24.482 2°46.973 349.7 13.3 339 29.5
2004-10-29 07:25:39 51°24.499 2°46.961 349.5 13.2 338 29.6
2004-10-29 07:25:44 51°24.516 2°46.951 349.7 13.2 339 29.5
2004-10-29 07:25:48 51°24.53 2°46.942 350.7 13.2 339 29
2004-10-29 07:25:54 51°24.55 2°46.929 349.6 13.4 337 29.5
2004-10-29 07:25:58 51°24.564 2°46.92 350.6 13.4 339 29.9
2004-10-29 07:26:04 51°24.585 2°46.907 350.5 13.4 339 29.3
2004-10-29 07:26:09 51°24.602 2°46.896 351.2 13.4 339 30.1
2004-10-29 07:26:12 51°24.613 2°46.889 349.8 13.4 337 29.8
2004-10-29 07:26:18 51°24.634 2°46.876 350.3 13.5 338 29.4
2004-10-29 07:26:24 51°24.654 2°46.861 349.4 13.5 338 28.9
2004-10-29 07:26:28 51°24.668 2°46.854 348.9 13.4 338 28.9
2004-10-29 07:26:34 51°24.688 2°46.838 349.4 13.4 338 28.8
2004-10-29 07:26:39 51°24.706 2°46.828 349 13.4 340 28.9
2004-10-29 07:26:44 51°24.723 2°46.815 349.9 13.5 337 28.3
2004-10-29 07:26:49 51°24.74 2°46.805 349 13.3 339 27.1
2004-10-29 07:26:54 51°24.757 2°46.792 348.5 13.4 334 27.2
2004-10-29 07:26:59 51°24.774 2°46.782 348.3 13.3 340 26.9
2004-10-29 07:27:04 51°24.791 2°46.769 348.9 13.5 335 26.5
2004-10-29 07:27:06 51°24.798 2°46.765 349.1 13.5 335 26.5
2004-10-29 07:27:14 51°24.825 2°46.746 348.4 13.5 336 26.3
2004-10-29 07:27:19 51°24.843 2°46.734 348.5 13.4 337 25.5
2004-10-29 07:27:24 51°24.859 2°46.722 348.3 13.4 337 24.9
2004-10-29 07:27:28 51°24.873 2°46.714 348.6 13.2 339 25.1
2004-10-29 07:27:34 51°24.893 2°46.7 349.2 13.2 339 25.2
2004-10-29 07:27:38 51°24.907 2°46.692 349.8 13.2 340 24.9
2004-10-29 07:27:43 51°24.924 2°46.681 350.5 13.3 339 24.2
2004-10-29 07:27:46 51°24.935 2°46.674 350.4 13.4 338 24
2004-10-29 07:27:52 51°24.955 2°46.661 349.6 13.4 337 24.3
2004-10-29 07:28:12 51°25.023 2°46.616 349 13.1 338 24
2004-10-29 07:28:16 51°25.036 2°46.607 348.9 13.1 337 24.3
2004-10-29 07:28:22 51°25.057 2°46.594 349.6 13.2 338 24
2004-10-29 07:28:27 51°25.074 2°46.583 349.5 13.2 337 24.1
2004-10-29 07:28:32 51°25.09 2°46.572 349.6 13.1 338 24.2
2004-10-29 07:28:35 51°25.1 2°46.565 348.9 13 339 24.2
2004-10-29 07:28:41 51°25.121 2°46.553 349.9 13.1 339 24.2
2004-10-29 07:28:46 51°25.138 2°46.542 350.1 13.1 340 24.1
2004-10-29 07:28:52 51°25.158 2°46.529 350.5 13.2 337 23.8
2004-10-29 07:28:56 51°25.172 2°46.521 349.9 13.2 339 24.1
2004-10-29 07:29:00 51°25.186 2°46.512 349.3 13.2 338 24.4
2004-10-29 07:29:07 51°25.21 2°46.497 349.7 13.2 339 24.8
2004-10-29 07:29:12 51°25.227 2°46.488 351.1 13.2 339 24.9
2004-10-29 07:29:14 51°25.234 2°46.485 353.1 13 342 24.8
2004-10-29 07:29:22 51°25.261 2°46.471 353.2 12.9 343 25
2004-10-29 07:29:27 51°25.278 2°46.463 354.1 12.9 344 25
2004-10-29 07:29:32 51°25.296 2°46.456 355.4 12.9 345 24.8
2004-10-29 07:29:36 51°25.309 2°46.451 356.4 12.9 346 23.8
2004-10-29 07:29:39 51°25.32 2°46.446 356.6 12.8 346 23.5
2004-10-29 07:29:47 51°25.348 2°46.435 356.4 12.9 346 24.8
2004-10-29 07:29:50 51°25.358 2°46.43 355.5 13 344 25.2
2004-10-29 07:29:58 51°25.386 2°46.418 355.2 13 344 24.8
2004-10-29 07:30:03 51°25.403 2°46.409 354.9 13 344 25.2
2004-10-29 07:30:07 51°25.417 2°46.404 355 13 344 24.8
2004-10-29 07:30:13 51°25.438 2°46.394 355.6 13.1 344 23.5
2004-10-29 07:30:18 51°25.456 2°46.386 355 13.1 344 23.2
2004-10-29 07:30:22 51°25.47 2°46.379 354.4 13.2 344 24.2
2004-10-29 07:30:27 51°25.487 2°46.37 354 13.3 342 24.4
2004-10-29 07:30:32 51°25.505 2°46.362 353.2 13.3 342 22.1
2004-10-29 07:30:38 51°25.526 2°46.351 353.3 13.2 343 23.7
2004-10-29 07:30:43 51°25.544 2°46.343 353.4 13.2 344 24.2
2004-10-29 07:30:47 51°25.558 2°46.336 354.1 13.3 342 24.1
2004-10-29 07:30:51 51°25.572 2°46.329 353.7 13.3 342 23.7
2004-10-29 07:30:58 51°25.596 2°46.317 353.9 13.2 344 23.4
2004-10-29 07:31:02 51°25.611 2°46.311 354.5 13.2 344 22.5
2004-10-29 07:31:07 51°25.628 2°46.302 354.4 13.2 343 21.3
2004-10-29 07:31:14 51°25.652 2°46.291 354.1 13.1 345 23.1
2004-10-29 07:31:18 51°25.666 2°46.284 353.7 13.1 343 23.2
2004-10-29 07:31:23 51°25.684 2°46.275 353.7 13.1 343 23.4
2004-10-29 07:31:28 51°25.701 2°46.267 353.7 13.1 343 22.9
2004-10-29 07:31:31 51°25.711 2°46.262 353.6 13 344 22.9
2004-10-29 07:31:38 51°25.736 2°46.251 353.6 13 343 22.7
2004-10-29 07:31:43 51°25.753 2°46.242 354.5 13 343 23.2
2004-10-29 07:31:44 51°25.756 2°46.24 354.3 13 343 23
2004-10-29 07:31:56 51°25.798 2°46.22 353.3 13.1 343 22
2004-10-29 07:32:02 51°25.819 2°46.21 353.4 13.1 343 23.5
2004-10-29 07:32:07 51°25.836 2°46.201 354.1 13.2 342 24.1
2004-10-29 07:32:11 51°25.85 2°46.194 352.9 13.1 342 22.5
2004-10-29 07:32:16 51°25.868 2°46.186 353.6 13.1 343 23.1
2004-10-29 07:32:21 51°25.885 2°46.178 354 12.9 344 23.8
2004-10-29 07:32:27 51°25.905 2°46.168 354.3 12.9 344 24.2
2004-10-29 07:32:32 51°25.922 2°46.161 354.7 12.9 344 24.2
2004-10-29 07:32:34 51°25.929 2°46.158 355 12.8 345 24.8
2004-10-29 07:32:41 51°25.953 2°46.149 356 12.8 346 25.2
2004-10-29 07:32:47 51°25.974 2°46.14 355.9 12.9 345 25.3
2004-10-29 07:32:52 51°25.992 2°46.132 356.2 13 347 25
2004-10-29 07:32:55 51°26.002 2°46.127 355.2 13 344 23.2
2004-10-29 07:33:02 51°26.026 2°46.116 354.8 13 344 25
2004-10-29 07:33:07 51°26.044 2°46.108 354.3 13.1 343 25.5
2004-10-29 07:33:11 51°26.058 2°46.101 353.8 13.1 343 25.3
2004-10-29 07:33:16 51°26.075 2°46.093 354.4 13.1 344 24.3
2004-10-29 07:33:22 51°26.096 2°46.083 354 13.1 344 25.2
2004-10-29 07:33:32 51°26.13 2°46.067 355.2 13 345 25.8
2004-10-29 07:33:34 51°26.137 2°46.064 354.3 13 343 25.5
2004-10-29 07:33:42 51°26.165 2°46.051 354.2 12.9 344 24.2
2004-10-29 07:33:47 51°26.182 2°46.043 354.2 12.9 344 24.3
2004-10-29 07:33:52 51°26.199 2°46.035 354 13 345 25.3
2004-10-29 07:33:56 51°26.213 2°46.028 355.1 13 345 26
2004-10-29 07:34:02 51°26.234 2°46.019 354.8 13.2 344 26.1
2004-10-29 07:34:06 51°26.248 2°46.012 354 13.1 343 26.2
2004-10-29 07:34:09 51°26.259 2°46.007 354.3 13.2 343 26.3
2004-10-29 07:34:23 51°26.308 2°45.983 354.2 13.2 344 27.2
2004-10-29 07:34:30 51°26.332 2°45.972 354.7 13.2 344 27.1
2004-10-29 07:34:35 51°26.35 2°45.963 354 13.2 343 27
2004-10-29 07:34:39 51°26.364 2°45.956 353.8 13.2 342 26.9
2004-10-29 07:34:47 51°26.392 2°45.942 353.3 13.1 343 26.9
2004-10-29 07:34:50 51°26.402 2°45.936 352.3 13.1 341 26.6
2004-10-29 07:34:58 51°26.43 2°45.923 352.7 13.1 341 25.8
2004-10-29 07:35:03 51°26.447 2°45.914 353.9 13.1 343 26.4
2004-10-29 07:35:07 51°26.461 2°45.908 354.6 13.1 343 26.7
2004-10-29 07:35:13 51°26.482 2°45.898 353.9 13.1 345 25.9
2004-10-29 07:35:18 51°26.499 2°45.889 354.6 13.1 345 26.2
2004-10-29 07:35:22 51°26.513 2°45.882 354 13.1 345 26.9
2004-10-29 07:35:27 51°26.531 2°45.874 354.5 13.2 343 27.7
2004-10-29 07:35:31 51°26.545 2°45.867 354.1 13.1 344 27.6
2004-10-29 07:35:38 51°26.569 2°45.856 354.9 13.2 345 27.7
2004-10-29 07:35:40 51°26.576 2°45.852 354.2 13.2 345 27.6
2004-10-29 07:35:48 51°26.604 2°45.838 354.8 13.3 343 27.8
2004-10-29 07:35:50 51°26.611 2°45.834 353.5 13.2 343 28.1
2004-10-29 07:35:58 51°26.639 2°45.819 353.4 13.2 342 28
2004-10-29 07:36:02 51°26.653 2°45.813 352.8 13.2 343 28
2004-10-29 07:36:08 51°26.674 2°45.802 353.9 13.2 342 28
2004-10-29 07:36:12 51°26.688 2°45.795 353.1 13.1 341 28.1
2004-10-29 07:36:18 51°26.709 2°45.785 353.8 13.1 344 28.5
2004-10-29 07:36:23 51°26.726 2°45.776 353.5 13 343 28.6
2004-10-29 07:36:28 51°26.743 2°45.767 354.4 13 343 28.8
2004-10-29 07:36:31 51°26.753 2°45.762 354.5 13 342 28.6
2004-10-29 07:36:38 51°26.777 2°45.751 355.5 12.9 346 29
2004-10-29 07:36:42 51°26.791 2°45.744 354.6 13 342 29.2
2004-10-29 07:36:48 51°26.811 2°45.735 354.6 13 342 29.7
2004-10-29 07:36:51 51°26.822 2°45.73 355.6 12.8 344 29.9
2004-10-29 07:37:06 51°26.873 2°45.705 354.9 12.9 343 29.7
2004-10-29 07:37:10 51°26.887 2°45.698 354.2 13 343 30
2004-10-29 07:37:15 51°26.904 2°45.689 354.4 13.1 344 29.9
2004-10-29 07:37:21 51°26.925 2°45.678 352.9 13 343 29.4
2004-10-29 07:37:26 51°26.942 2°45.67 354.1 13 343 29.1
2004-10-29 07:37:30 51°26.956 2°45.662 354.5 13.1 342 29.7
2004-10-29 07:37:36 51°26.977 2°45.653 354.1 13.1 344 30
2004-10-29 07:37:41 51°26.995 2°45.645 355.7 13.2 344 29.4
2004-10-29 07:37:46 51°27.012 2°45.638 355.9 13.2 345 28.9
2004-10-29 07:37:57 51°27.051 2°45.619 355.3 13.2 343 28.7
2004-10-29 07:38:02 51°27.068 2°45.61 354.2 13.2 343 28
2004-10-29 07:38:07 51°27.085 2°45.601 354.4 13.2 343 28.2
2004-10-29 07:38:12 51°27.103 2°45.593 354.7 13 344 28.5
2004-10-29 07:38:16 51°27.117 2°45.585 354 13.2 342 28.4
2004-10-29 07:38:20 51°27.131 2°45.579 354.5 13.1 343 28.2
2004-10-29 07:38:32 51°27.172 2°45.557 354.1 13.2 342 28.1
2004-10-29 07:38:37 51°27.19 2°45.547 353.7 13.4 341 28
2004-10-29 07:38:42 51°27.207 2°45.538 353.2 13.4 341 28
2004-10-29 07:38:46 51°27.221 2°45.531 353.1 13.3 341 28
2004-10-29 07:38:52 51°27.242 2°45.52 353.6 13.3 343 28.3
2004-10-29 07:38:57 51°27.26 2°45.511 353.7 13.3 341 27.9
2004-10-29 07:39:02 51°27.277 2°45.502 354.4 13.3 341 27.5
2004-10-29 07:39:06 51°27.291 2°45.494 353.7 13.2 341 27.2
2004-10-29 07:39:12 51°27.312 2°45.484 353.4 13 342 27.1
2004-10-29 07:39:14 51°27.318 2°45.48 354.2 13 342 27.2
2004-10-29 07:39:23 51°27.349 2°45.465 354.1 13 342 27.7
2004-10-29 07:39:29 51°27.37 2°45.455 354.7 13 343 27.6
2004-10-29 07:39:34 51°27.387 2°45.446 355 13 344 27.5
2004-10-29 07:39:38 51°27.401 2°45.439 354.2 13 343 27.7
2004-10-29 07:39:44 51°27.422 2°45.43 355.2 13.1 344 27.6
2004-10-29 07:39:48 51°27.436 2°45.423 355.3 13.2 344 27.8
2004-10-29 07:39:54 51°27.457 2°45.413 355.3 13.2 343 27.9
2004-10-29 07:39:59 51°27.474 2°45.404 354.3 13.1 343 27.9
2004-10-29 07:40:03 51°27.488 2°45.397 354.3 13.1 343 27.6
2004-10-29 07:40:09 51°27.509 2°45.388 355.5 12.9 344 27.8
2004-10-29 07:40:14 51°27.526 2°45.38 355.5 13.1 343 27.6
2004-10-29 07:40:18 51°27.54 2°45.374 355.6 13.1 344 27.3
2004-10-29 07:40:23 51°27.558 2°45.365 356.2 13.1 343 27.4
2004-10-29 07:40:28 51°27.575 2°45.356 354 13.1 342 27.8
2004-10-29 07:40:34 51°27.595 2°45.346 353.6 13.1 342 27.8
2004-10-29 07:40:38 51°27.609 2°45.34 355.1 12.9 344 27.7
2004-10-29 07:40:44 51°27.63 2°45.331 355.9 12.9 344 27.7
2004-10-29 07:40:48 51°27.644 2°45.325 356.6 13 345 27.8
2004-10-29 07:40:54 51°27.665 2°45.315 355.9 13 342 27.7
2004-10-29 07:40:58 51°27.679 2°45.309 355 13 344 27.9
2004-10-29 07:41:04 51°27.699 2°45.299 355.1 12.9 344 28
2004-10-29 07:41:07 51°27.71 2°45.294 355.2 13 344 27.7
2004-10-29 07:41:14 51°27.734 2°45.284 356.7 13 344 27.6
2004-10-29 07:41:19 51°27.751 2°45.277 355.5 12.9 344 27.9
2004-10-29 07:41:24 51°27.769 2°45.269 356.3 12.9 344 27.9
2004-10-29 07:41:29 51°27.786 2°45.261 354.9 13.1 344 27.6
2004-10-29 07:41:34 51°27.804 2°45.253 355.5 13.1 344 27.5
2004-10-29 07:41:38 51°27.818 2°45.246 354.8 13.1 344 27.3
2004-10-29 07:41:44 51°27.839 2°45.236 354.4 13.2 344 27.1
2004-10-29 07:41:49 51°27.857 2°45.227 354.8 13.3 340 27
2004-10-29 07:41:52 51°27.867 2°45.221 352.8 13.3 340 27.4
2004-10-29 07:41:59 51°27.892 2°45.209 353.8 13.2 344 27.3
2004-10-29 07:42:02 51°27.902 2°45.205 354 13.2 344 27.4
2004-10-29 07:42:09 51°27.927 2°45.192 354.2 13.2 342 27
2004-10-29 07:42:14 51°27.944 2°45.183 354.1 13.2 342 26.6
2004-10-29 07:42:18 51°27.958 2°45.176 352.7 13.2 342 26.5
2004-10-29 07:42:23 51°27.975 2°45.168 353.4 13.1 343 26.6
2004-10-29 07:42:28 51°27.993 2°45.159 354.3 13.1 343 26.7
2004-10-29 07:42:34 51°28.014 2°45.149 353.9 13.1 343 26.4
2004-10-29 07:42:38 51°28.027 2°45.142 353.4 13.1 344 26.6
2004-10-29 07:42:43 51°28.045 2°45.135 355 13.1 344 26.5
2004-10-29 07:42:48 51°28.062 2°45.125 353.4 13.2 343 26.5
2004-10-29 07:42:54 51°28.083 2°45.114 353.9 13.2 343 26.5
2004-10-29 07:42:59 51°28.101 2°45.105 353.2 13.3 343 26.8
2004-10-29 07:43:04 51°28.118 2°45.095 352.9 13.3 343 26.9
2004-10-29 07:43:08 51°28.132 2°45.088 352.5 13.4 341 27.1
2004-10-29 07:43:14 51°28.154 2°45.076 351.2 13.4 341 27
2004-10-29 07:43:16 51°28.161 2°45.072 352.5 13.3 342 27.1
2004-10-29 07:43:28 51°28.202 2°45.05 352.9 13.3 342 27.3
2004-10-29 07:43:34 51°28.224 2°45.04 352.9 13.4 343 27.5
2004-10-29 07:43:38 51°28.238 2°45.032 352.8 13.4 341 27.8
2004-10-29 07:43:44 51°28.259 2°45.021 353.2 13.3 343 27.9
2004-10-29 07:43:49 51°28.276 2°45.012 353.1 13.3 343 28.1
2004-10-29 07:43:54 51°28.294 2°45.003 353 13.3 343 28.2
2004-10-29 07:43:58 51°28.308 2°44.996 352.7 13.3 344 28.1
2004-10-29 07:44:02 51°28.322 2°44.989 353.3 13.5 341 28
2004-10-29 07:44:12 51°28.357 2°44.969 351.9 13.3 342 28.2
2004-10-29 07:44:15 51°28.368 2°44.963 351.8 13.3 341 28
2004-10-29 07:44:22 51°28.392 2°44.951 352.7 13.2 343 28.3
2004-10-29 07:44:27 51°28.41 2°44.944 353.6 13.2 344 28.4
2004-10-29 07:44:31 51°28.424 2°44.937 355.1 13.2 344 28.4
2004-10-29 07:44:36 51°28.442 2°44.93 355.6 13.2 344 28.3
2004-10-29 07:44:42 51°28.463 2°44.919 354.9 13.2 343 28.2
2004-10-29 07:44:46 51°28.477 2°44.913 354.4 13.1 344 28.2
2004-10-29 07:44:52 51°28.498 2°44.903 354.6 13.1 344 28.2
2004-10-29 07:44:57 51°28.515 2°44.894 353.6 13 343 28.2
2004-10-29 07:45:02 51°28.532 2°44.886 353.9 13 344 28.1
2004-10-29 07:45:06 51°28.546 2°44.88 354.9 13 345 27.5
2004-10-29 07:45:12 51°28.567 2°44.87 354.9 12.9 343 27.3
2004-10-29 07:45:17 51°28.584 2°44.862 354.6 12.9 343 27.1
2004-10-29 07:45:22 51°28.602 2°44.856 354.6 12.9 346 26.7
2004-10-29 07:45:27 51°28.619 2°44.847 355.6 12.9 346 25.8
2004-10-29 07:45:31 51°28.632 2°44.843 355.6 12.9 347 25.5
2004-10-29 07:45:37 51°28.653 2°44.832 355.4 12.9 343 25.9
2004-10-29 07:45:42 51°28.671 2°44.825 354.9 12.9 345 26.5
2004-10-29 07:45:47 51°28.688 2°44.817 355.3 12.9 345 27.2
2004-10-29 07:45:50 51°28.698 2°44.812 354.3 12.9 345 27.1
2004-10-29 07:45:57 51°28.722 2°44.801 354.8 13 345 27.5
2004-10-29 07:46:01 51°28.736 2°44.795 354.5 13 344 27.6
2004-10-29 07:46:07 51°28.757 2°44.785 354.9 13.1 342 27.3
2004-10-29 07:46:12 51°28.774 2°44.777 353.7 13 342 26.8
2004-10-29 07:46:16 51°28.788 2°44.769 353.5 13 342 26.4
2004-10-29 07:46:19 51°28.798 2°44.764 353.5 13 343 26.4
2004-10-29 07:46:26 51°28.823 2°44.752 353.7 13 341 26.9
2004-10-29 07:46:32 51°28.843 2°44.742 353.4 12.7 343 26.9
2004-10-29 07:46:36 51°28.856 2°44.736 353.7 12.7 344 27.4
2004-10-29 07:46:42 51°28.877 2°44.727 353.8 12.8 342 26.7
2004-10-29 07:46:47 51°28.894 2°44.72 355.5 12.8 346 25.6
2004-10-29 07:46:52 51°28.911 2°44.711 356.1 13 342 24.6
2004-10-29 07:46:56 51°28.925 2°44.705 354.2 12.7 345 28.1
2004-10-29 07:47:02 51°28.945 2°44.696 354.8 12.9 344 28.5
2004-10-29 07:47:07 51°28.962 2°44.688 354.1 12.9 345 28.4
2004-10-29 07:47:12 51°28.98 2°44.681 355.4 12.9 345 28
2004-10-29 07:47:16 51°28.993 2°44.673 354.4 12.9 343 27.3
2004-10-29 07:47:22 51°29.014 2°44.665 354 12.9 343 26.8
2004-10-29 07:47:26 51°29.028 2°44.657 354.6 13 342 28.8
2004-10-29 07:47:32 51°29.048 2°44.648 354.5 12.8 344 29
2004-10-29 07:47:36 51°29.062 2°44.642 354.5 12.9 345 29.1
2004-10-29 07:47:39 51°29.073 2°44.637 354.7 12.9 345 29
2004-10-29 07:47:46 51°29.097 2°44.627 355.7 12.9 345 28.8
2004-10-29 07:47:52 51°29.118 2°44.618 355.6 12.9 345 28.2
2004-10-29 07:47:57 51°29.135 2°44.611 355.8 12.8 345 28
2004-10-29 07:48:00 51°29.145 2°44.606 355.3 12.9 342 27.5
2004-10-29 07:48:07 51°29.168 2°44.591 350 12.6 340 25.5
2004-10-29 07:48:15 51°29.193 2°44.576 351.1 11.8 337 27.2
2004-10-29 07:48:20 51°29.207 2°44.569 349.8 11.8 337 28.8
2004-10-29 07:48:30 51°29.234 2°44.556 355.4 9.7 347 28
2004-10-29 07:48:36 51°29.249 2°44.551 357.8 9.5 347 26.9
2004-10-29 07:48:42 51°29.264 2°44.548   9.1 351 26.1
2004-10-29 07:48:47 51°29.276 2°44.545 2.6 8.8 351 27.7
2004-10-29 07:48:51 51°29.286 2°44.544 4.3 8.5 355 29.5
2004-10-29 07:48:56 51°29.297 2°44.544 7.2 8.5 355 29.8
2004-10-29 07:49:02 51°29.31 2°44.544 8.9 8.2 359 29.1
2004-10-29 07:49:07 51°29.321 2°44.546 11.6 7.9 4 28.3
2004-10-29 07:49:12 51°29.332 2°44.548 15.5 7.7 6 28
2004-10-29 07:49:16 51°29.34 2°44.551 18.1 7.6 7 28.2
2004-10-29 07:49:22 51°29.352 2°44.556 21.4 7.6 7 28
2004-10-29 07:49:27 51°29.361 2°44.56 23.2 7.3 15 28.5
2004-10-29 07:49:32 51°29.371 2°44.563 23.5 7.2 13 29.9
2004-10-29 07:49:36 51°29.379 2°44.566 22.9 7.2 11 30.6
2004-10-29 07:49:42 51°29.391 2°44.569 20.3 7.2 8 30.3
2004-10-29 07:49:47 51°29.4 2°44.571 18.9 6.8 7 30
2004-10-29 07:49:52 51°29.409 2°44.571 16.3 6.7 5 29.7
2004-10-29 07:49:56 51°29.416 2°44.572 14.5 6.1 5 29.1
2004-10-29 07:50:02 51°29.426 2°44.573 15.2 5.9 2 28
2004-10-29 07:50:07 51°29.433 2°44.574 16.4 5.3 7 27.8
2004-10-29 07:50:12 51°29.439 2°44.576 19 5.1 7 26.3
2004-10-29 07:50:16 51°29.444 2°44.578 22.5 5.1 7 27
2004-10-29 07:50:22 51°29.451 2°44.582 26.6 4.2 18 26.4
2004-10-29 07:50:27 51°29.456 2°44.585 30.3 3.9 22 28.7
2004-10-29 07:50:30 51°29.459 2°44.587 34.2 3.7 25 29.7
2004-10-29 07:50:36 51°29.464 2°44.591 38 3.5 27 30.4
2004-10-29 07:50:42 51°29.468 2°44.596 41.2 3.2 32 30.7
2004-10-29 07:50:47 51°29.472 2°44.6 43.5 3.1 35 31
2004-10-29 07:50:50 51°29.473 2°44.602 44.8 3.1 35 31
2004-10-29 07:51:03 51°29.481 2°44.611 46.2 2.4 39 30.6
2004-10-29 07:51:08 51°29.483 2°44.614 47.5 2.3 39 30.6
2004-10-29 07:51:12 51°29.485 2°44.616 48.6 2.1 37 30.3
2004-10-29 07:51:28 51°29.492 2°44.625 48 1.9 35 29.6
2004-10-29 07:51:34 51°29.495 2°44.627 46.5 1.8 35 29.2